Time;durP1;ratioP1;P1;durP2;ratioP2;P2;SDS_P1;SDS_P2;PMS_P1;PMS_P2;Temp;Humidity;BMP_temperature;BMP_pressure;BME280_temperature;BME280_humidity;BME280_pressure;Samples;Min_cycle;Max_cycle;Signal;HPM_P1;HPM_P2
2022/02/10 00:17:25;;;;;;;13.93;7.50;;;;;;;-3.74;62.13;100263.94;4995950;28;20513;-84
2022/02/10 00:22:30;;;;;;;14.98;8.30;;;;;;;-3.81;61.88;100277.94;5003150;28;20046;-85
2022/02/10 00:36:11;;;;;;;16.63;9.90;;;;;;;-3.72;62.05;100268.28;5011825;28;20054;-85
2022/02/10 00:38:43;;;;;;;18.00;9.05;;;;;;;-3.77;62.44;100266.56;5006807;28;20050;-86
2022/02/10 00:41:09;;;;;;;16.90;10.15;;;;;;;-3.73;61.84;100261.31;4999529;28;20046;-86
2022/02/10 00:43:35;;;;;;;16.35;10.05;;;;;;;-3.69;61.74;100256.94;4996992;28;20462;-85
2022/02/10 00:46:01;;;;;;;20.05;9.75;;;;;;;-3.75;61.47;100260.47;5003064;28;20063;-86
2022/02/10 00:48:29;;;;;;;16.80;10.60;;;;;;;-3.72;61.96;100252.63;5022678;28;20106;-85
2022/02/10 00:50:56;;;;;;;16.00;10.50;;;;;;;-3.70;61.80;100256.06;5005266;28;20525;-85
2022/02/10 00:53:30;;;;;;;20.60;11.15;;;;;;;-3.72;62.03;100247.41;4984781;28;20077;-84
2022/02/10 00:55:57;;;;;;;16.45;10.52;;;;;;;-3.74;61.92;100243.91;4980549;28;20069;-86
2022/02/10 00:58:30;;;;;;;14.98;9.77;;;;;;;-3.77;62.04;100233.47;4995037;28;20189;-86
2022/02/10 01:30:16;;;;;;;37.55;20.20;;;;;;;-3.99;62.89;100229.28;4993246;28;20054;-84
2022/02/10 01:32:45;;;;;;;41.55;24.92;;;;;;;-3.93;62.58;100229.25;4992730;28;20482;-84
2022/02/10 01:35:15;;;;;;;40.70;25.05;;;;;;;-3.92;62.14;100223.16;4976878;28;20042;-85
2022/02/10 01:37:42;;;;;;;43.33;25.35;;;;;;;-3.88;62.49;100214.41;4977972;28;20489;-85
2022/02/10 01:40:15;;;;;;;45.50;26.67;;;;;;;-3.86;62.54;100202.22;4992777;28;20049;-86
2022/02/10 02:04:22;;;;;;;11.38;6.13;;;;;;;-4.37;62.50;100178.19;4979526;28;20169;-84
2022/02/10 02:06:50;;;;;;;7.13;5.10;;;;;;;-4.36;62.35;100185.16;4960737;28;20046;-85
2022/02/10 02:09:17;;;;;;;8.55;6.22;;;;;;;-4.48;62.38;100170.41;4976720;28;20528;-85
2022/02/10 02:11:48;;;;;;;11.30;6.03;;;;;;;-4.62;62.82;100171.41;4960395;28;20046;-84
2022/02/10 02:14:15;;;;;;;14.65;6.68;;;;;;;-4.56;63.09;100187.88;4961582;28;20104;-86
2022/02/10 02:16:56;;;;;;;10.35;5.47;;;;;;;-4.53;63.28;100187.00;4993710;28;20057;-85
2022/02/10 02:19:22;;;;;;;11.40;6.53;;;;;;;-4.54;62.66;100169.59;4979677;28;20054;-84
2022/02/10 02:21:48;;;;;;;10.80;6.43;;;;;;;-4.56;62.58;100182.66;4994133;28;20486;-83
2022/02/10 02:24:20;;;;;;;10.70;6.43;;;;;;;-4.55;62.67;100183.50;4962446;28;20128;-84
2022/02/10 02:26:53;;;;;;;14.32;7.00;;;;;;;-4.66;62.65;100181.84;4966237;28;20133;-85
2022/02/10 02:29:27;;;;;;;13.52;6.55;;;;;;;-4.68;62.68;100167.94;4950581;28;20497;-84
2022/02/10 02:32:00;;;;;;;10.60;6.30;;;;;;;-4.77;62.69;100181.03;4952803;28;20034;-84
2022/02/10 02:35:38;;;;;;;12.20;7.30;;;;;;;-4.80;62.17;100182.78;4950834;28;20046;-84
2022/02/10 03:07:24;;;;;;;12.18;6.32;;;;;;;-5.27;62.40;100162.94;4976220;28;20057;-85
2022/02/10 03:10:20;;;;;;;11.88;6.88;;;;;;;-5.33;62.37;100166.44;4977542;28;20141;-85
2022/02/10 03:12:45;;;;;;;13.48;7.13;;;;;;;-5.26;62.18;100173.38;4935928;28;20038;-81
2022/02/10 03:15:22;;;;;;;16.17;7.75;;;;;;;-5.27;62.23;100161.19;4975551;28;20089;-81
2022/02/10 03:59:49;;;;;;;13.75;7.18;;;;;;;-5.21;62.11;100161.19;4928118;28;20066;-85
2022/02/10 04:02:23;;;;;;;14.75;7.72;;;;;;;-5.39;61.72;100141.25;4981234;28;20098;-80
2022/02/10 04:18:01;;;;;;;18.48;6.57;;;;;;;-5.33;62.05;100137.78;4908661;29;20054;-81
2022/02/10 04:20:45;;;;;;;17.35;7.03;;;;;;;-5.20;61.53;100144.69;4955320;29;20138;-81
2022/02/10 04:26:14;;;;;;;10.25;5.35;;;;;;;-5.09;60.91;100143.78;4941646;29;20046;-79
2022/02/10 04:53:04;;;;;;;13.95;6.45;;;;;;;-4.48;59.49;100123.44;4925907;29;20039;-82
2022/02/10 05:04:33;;;;;;;14.73;6.95;;;;;;;-4.18;58.65;100109.31;4938666;29;20051;-79
2022/02/10 05:17:27;;;;;;;12.05;6.60;;;;;;;-3.47;55.80;100106.03;4940752;29;20055;-78
2022/02/10 05:33:51;;;;;;;13.23;6.22;;;;;;;-3.32;54.66;100095.41;4953156;29;20115;-81
2022/02/10 05:36:21;;;;;;;13.75;7.05;;;;;;;-3.11;54.90;100089.06;4944593;29;20102;-81
2022/02/10 05:39:13;;;;;;;11.27;6.10;;;;;;;-2.97;54.58;100088.88;4928311;29;20054;-81
2022/02/10 05:44:46;;;;;;;12.35;6.55;;;;;;;-2.86;54.00;100083.50;4955975;28;20043;-83
2022/02/10 05:52:51;;;;;;;15.07;7.20;;;;;;;-2.76;53.30;100099.06;4940786;29;20054;-79
2022/02/10 05:55:35;;;;;;;10.10;5.78;;;;;;;-2.71;53.26;100096.38;4911239;29;20047;-81
2022/02/10 06:52:08;;;;;;;12.95;6.65;;;;;;;-1.00;49.76;100079.41;4946178;28;20060;-81
2022/02/10 06:57:46;;;;;;;14.80;7.30;;;;;;;-1.03;48.63;100096.06;4943988;29;20049;-80
2022/02/10 07:08:08;;;;;;;30.60;15.35;;;;;;;-1.02;48.84;100070.69;4943461;29;20058;-81
2022/02/10 08:57:05;;;;;;;14.07;6.25;;;;;;;0.54;44.83;99893.28;4941394;29;20055;-80
2022/02/10 09:05:11;;;;;;;14.00;5.68;;;;;;;0.57;45.51;99872.16;4954592;29;20167;-79
2022/02/10 09:10:45;;;;;;;10.27;5.90;;;;;;;0.83;44.79;99873.97;4924206;29;20051;-81
2022/02/10 10:01:34;;;;;;;11.93;6.25;;;;;;;-0.53;47.60;99823.66;4954944;28;20503;-83
2022/02/10 10:04:11;;;;;;;13.05;6.68;;;;;;;-0.53;48.32;99796.50;4939277;29;20463;-81
2022/02/10 10:06:56;;;;;;;13.93;6.80;;;;;;;-0.34;48.50;99815.25;4938693;29;20054;-81
2022/02/10 10:12:13;;;;;;;14.70;6.78;;;;;;;-0.11;48.59;99798.84;4954027;29;20138;-84
2022/02/10 10:17:46;;;;;;;16.08;7.18;;;;;;;-0.07;48.83;99795.22;4954847;28;20557;-82
2022/02/10 10:20:36;;;;;;;16.13;7.20;;;;;;;0.11;49.07;99789.38;4926809;29;20043;-84
2022/02/10 10:51:12;;;;;;;15.50;7.20;;;;;;;-0.20;50.06;99739.53;4944463;29;20043;-83
2022/02/10 10:53:50;;;;;;;13.73;6.97;;;;;;;-0.26;50.43;99735.31;4942485;29;20490;-80
2022/02/10 10:56:26;;;;;;;15.93;7.43;;;;;;;-0.28;50.28;99734.50;4942294;28;20093;-83
2022/02/10 11:05:08;;;;;;;21.90;7.80;;;;;;;-0.51;51.51;99731.69;4943578;29;20051;-82
2022/02/10 11:43:40;;;;;;;10.50;5.90;;;;;;;-0.93;50.80;99718.88;4956902;29;20078;-84
2022/02/10 12:33:11;;;;;;;17.48;6.93;;;;;;;-1.40;52.85;99675.53;4972950;28;20058;-85
2022/02/10 14:09:11;;;;;;;16.15;7.05;;;;;;;-3.48;67.48;99565.97;4924135;29;20526;-83
2022/02/10 14:12:33;;;;;;;10.95;6.05;;;;;;;-3.69;67.94;99568.06;4906038;29;20058;-85
2022/02/10 14:14:47;;;;;;;16.80;6.78;;;;;;;-3.68;67.74;99569.81;4895934;29;20171;-84
2022/02/10 14:17:18;;;;;;;14.90;7.28;;;;;;;-3.79;67.71;99560.47;4890406;28;20058;-83
2022/02/10 14:19:59;;;;;;;13.50;6.60;;;;;;;-3.87;68.04;99557.09;4888943;28;20051;-83
2022/02/10 14:27:46;;;;;;;16.25;7.38;;;;;;;-3.91;68.08;99548.50;4910890;29;20575;-83
2022/02/10 14:30:14;;;;;;;14.77;6.82;;;;;;;-3.89;67.92;99544.09;4912808;29;20051;-83
2022/02/10 14:32:45;;;;;;;14.95;8.05;;;;;;;-3.78;67.71;99531.69;4904378;29;20046;-83
2022/02/10 15:16:27;;;;;;;11.60;7.10;;;;;;;-4.32;69.61;99471.78;4928011;29;20044;-83
2022/02/10 15:22:02;;;;;;;17.27;8.25;;;;;;;-4.17;69.06;99484.56;4868069;29;20052;-83
2022/02/10 15:49:49;;;;;;;12.55;6.50;;;;;;;-4.02;68.29;99466.91;4833703;29;20433;-86
2022/02/10 15:52:24;;;;;;;15.55;7.65;;;;;;;-4.03;68.60;99452.94;4867450;29;20056;-89
2022/02/10 16:11:09;;;;;;;16.40;7.13;;;;;;;-4.26;69.07;99427.28;4928683;29;20484;-84
2022/02/10 16:18:54;;;;;;;19.48;7.07;;;;;;;-4.18;68.73;99424.53;4965574;28;20490;-84
2022/02/10 16:21:47;;;;;;;14.88;6.55;;;;;;;-4.08;69.21;99417.41;4966759;28;20591;-86
2022/02/10 16:24:31;;;;;;;15.95;6.35;;;;;;;-3.96;68.99;99414.53;4934584;28;20046;-86
2022/02/10 16:27:16;;;;;;;11.45;5.20;;;;;;;-4.06;67.91;99407.75;4943403;28;20055;-87
2022/02/10 16:29:49;;;;;;;18.63;7.70;;;;;;;-4.12;68.23;99402.69;4910833;29;20058;-86
2022/02/10 16:32:17;;;;;;;14.93;6.70;;;;;;;-4.08;67.99;99406.94;4920668;29;20043;-86
2022/02/10 16:34:45;;;;;;;10.98;6.07;;;;;;;-4.09;67.71;99400.03;4901687;29;20458;-86
2022/02/10 16:37:15;;;;;;;14.63;7.18;;;;;;;-4.17;67.40;99414.06;4901200;29;20091;-87
2022/02/10 16:39:43;;;;;;;16.67;7.47;;;;;;;-4.20;67.78;99413.28;4895528;29;20086;-86
2022/02/10 16:42:12;;;;;;;12.73;5.72;;;;;;;-4.27;67.86;99391.66;4891411;29;20058;-87
2022/02/10 16:44:40;;;;;;;13.80;7.47;;;;;;;-4.28;67.63;99391.69;4873229;29;20064;-88
2022/02/10 16:47:12;;;;;;;14.63;7.30;;;;;;;-4.24;68.06;99394.19;4857304;29;20059;-86
2022/02/10 16:49:44;;;;;;;13.18;6.93;;;;;;;-4.27;68.17;99391.66;4858683;29;20067;-86
2022/02/10 16:52:17;;;;;;;14.75;7.07;;;;;;;-4.22;67.97;99379.34;4874349;29;20052;-85
2022/02/10 16:55:24;;;;;;;13.38;6.75;;;;;;;-4.25;68.07;99379.44;4867794;29;20060;-87
2022/02/10 17:17:28;;;;;;;16.55;7.22;;;;;;;-4.39;68.08;99360.56;4891540;29;20066;-87
2022/02/10 17:20:41;;;;;;;17.00;7.95;;;;;;;-4.32;67.97;99369.16;4899664;29;20129;-87
2022/02/10 17:25:46;;;;;;;16.85;7.43;;;;;;;-4.44;67.97;99355.44;4908526;29;20155;-88
2022/02/10 17:28:17;;;;;;;12.38;6.78;;;;;;;-4.43;67.89;99353.69;4883609;29;20051;-87
2022/02/10 17:33:31;;;;;;;18.38;8.70;;;;;;;-4.45;68.33;99351.09;4903352;29;20048;-87
2022/02/10 17:36:26;;;;;;;17.60;7.70;;;;;;;-4.60;68.43;99345.31;4905474;29;20523;-86
2022/02/10 17:42:26;;;;;;;22.58;8.73;;;;;;;-4.51;68.11;99350.38;4889764;29;20090;-86
2022/02/10 17:53:41;;;;;;;25.73;9.40;;;;;;;-4.60;68.42;99340.97;4900436;29;20130;-85
2022/02/10 17:56:15;;;;;;;16.63;8.70;;;;;;;-4.86;68.29;99304.06;4930147;29;20043;-88
2022/02/10 17:58:49;;;;;;;20.27;8.93;;;;;;;-4.72;68.50;99321.19;4904022;29;20485;-90
2022/02/10 18:01:18;;;;;;;18.08;8.30;;;;;;;-4.72;68.67;99317.72;4886506;29;20102;-87
2022/02/10 18:03:47;;;;;;;20.70;10.05;;;;;;;-4.60;68.07;99319.25;4885251;29;20056;-88
2022/02/10 18:15:31;;;;;;;14.93;7.13;;;;;;;-4.75;67.93;99304.75;4923270;29;20047;-91
2022/02/10 18:18:09;;;;;;;17.48;8.98;;;;;;;-4.78;68.14;99316.06;4905586;29;20042;-85
2022/02/10 18:20:41;;;;;;;20.95;9.50;;;;;;;-4.77;68.29;99304.78;4937829;29;20058;-85
2022/02/10 18:23:19;;;;;;;17.27;8.23;;;;;;;-4.77;68.23;99296.97;4921152;29;20039;-84
2022/02/10 18:25:55;;;;;;;20.30;9.05;;;;;;;-4.84;67.77;99282.31;4936729;28;20047;-86
2022/02/10 18:28:32;;;;;;;18.40;8.27;;;;;;;-4.85;68.68;99283.22;4901139;29;20712;-87
2022/02/10 18:34:04;;;;;;;17.92;7.65;;;;;;;-4.86;68.34;99276.25;4915916;29;20048;-86
2022/02/10 18:38:07;;;;;;;18.58;8.70;;;;;;;-4.74;68.13;99276.03;4886973;29;20067;-88
2022/02/10 19:01:49;;;;;;;18.50;7.25;;;;;;;-4.65;68.01;99257.59;4922203;28;20062;-89
2022/02/10 19:09:56;;;;;;;16.52;6.72;;;;;;;-4.64;67.85;99248.88;4913233;29;20066;-85
2022/02/10 19:12:28;;;;;;;12.63;6.60;;;;;;;-4.66;68.06;99245.44;4883285;29;20155;-89
2022/02/10 19:15:09;;;;;;;13.88;7.82;;;;;;;-4.65;67.45;99244.56;4884827;29;20055;-88
2022/02/10 19:17:36;;;;;;;14.82;7.07;;;;;;;-4.71;67.69;99236.84;4856830;29;20044;-86
2022/02/10 19:20:04;;;;;;;17.70;7.60;;;;;;;-4.68;67.95;99249.81;4838129;29;20067;-86
2022/02/10 19:22:56;;;;;;;10.20;6.18;;;;;;;-4.72;67.97;99237.75;4868970;29;20052;-82
2022/02/10 19:25:23;;;;;;;19.52;7.57;;;;;;;-4.73;68.00;99236.03;4900133;29;20174;-84
2022/02/10 19:27:52;;;;;;;13.10;6.65;;;;;;;-4.80;67.79;99215.31;4868595;29;20048;-85
2022/02/10 19:30:22;;;;;;;17.83;7.25;;;;;;;-4.85;67.63;99225.84;4852989;29;20051;-85
2022/02/10 19:32:54;;;;;;;16.98;7.15;;;;;;;-4.74;67.66;99223.88;4884493;29;20441;-84
2022/02/10 19:35:23;;;;;;;15.43;6.97;;;;;;;-4.78;67.46;99227.41;4869072;29;20610;-84
2022/02/10 19:37:55;;;;;;;13.35;6.50;;;;;;;-4.80;67.70;99228.38;4869058;29;20048;-84
2022/02/10 19:40:22;;;;;;;12.23;5.95;;;;;;;-4.78;67.49;99230.03;4916863;28;20061;-87
2022/02/10 19:42:49;;;;;;;12.48;6.90;;;;;;;-4.79;67.47;99230.94;4946100;28;20042;-86
2022/02/10 19:45:15;;;;;;;21.17;6.68;;;;;;;-4.81;67.64;99211.84;4948449;28;20050;-88
2022/02/10 19:47:41;;;;;;;13.60;6.45;;;;;;;-4.75;67.58;99218.69;4965265;28;20530;-85
2022/02/10 19:50:12;;;;;;;12.88;6.78;;;;;;;-4.76;67.24;99220.44;5000707;28;20141;-88
2022/02/10 19:52:41;;;;;;;13.00;6.93;;;;;;;-4.81;67.27;99216.19;4968117;28;20050;-83
2022/02/10 19:55:10;;;;;;;17.90;7.15;;;;;;;-4.87;67.29;99219.78;4996424;28;20185;-89
2022/02/10 19:57:39;;;;;;;15.45;6.75;;;;;;;-4.84;67.69;99222.34;4964400;28;20053;-86
2022/02/10 20:00:12;;;;;;;16.83;6.88;;;;;;;-4.91;67.11;99205.97;4978780;28;20042;-89
2022/02/10 20:02:38;;;;;;;16.02;7.55;;;;;;;-4.88;67.13;99210.25;4980789;28;20046;-89
2022/02/10 20:05:04;;;;;;;12.60;6.43;;;;;;;-4.86;67.36;99203.25;4994913;28;20121;-88
2022/02/10 20:07:37;;;;;;;16.15;6.75;;;;;;;-4.89;67.07;99203.31;4995866;28;20387;-90
2022/02/10 20:10:04;;;;;;;15.45;6.63;;;;;;;-4.90;67.25;99197.25;4995871;28;20046;-88
2022/02/10 20:12:30;;;;;;;11.23;6.13;;;;;;;-4.84;67.19;99195.41;4978611;28;20034;-84
2022/02/10 20:14:56;;;;;;;12.63;6.30;;;;;;;-4.84;66.57;99187.59;4978357;28;20489;-89
2022/02/10 20:17:22;;;;;;;13.75;6.97;;;;;;;-4.93;66.65;99170.38;5010767;28;20137;-88
2022/02/10 20:19:48;;;;;;;18.83;6.30;;;;;;;-4.87;66.33;99180.69;4977601;28;20140;-87
2022/02/10 20:22:14;;;;;;;12.70;6.13;;;;;;;-4.86;66.20;99179.78;4995564;28;20045;-87
2022/02/10 20:24:40;;;;;;;13.65;6.72;;;;;;;-4.82;66.05;99194.47;4995629;28;20046;-86
2022/02/10 20:27:06;;;;;;;13.00;6.65;;;;;;;-4.85;65.93;99178.91;4978758;28;20034;-87
2022/02/10 20:29:33;;;;;;;13.88;6.75;;;;;;;-4.85;65.83;99180.66;5010477;28;20133;-87
2022/02/10 20:31:59;;;;;;;13.73;6.00;;;;;;;-4.91;65.83;99163.41;4994210;28;20461;-87
2022/02/10 20:34:26;;;;;;;13.35;6.82;;;;;;;-4.83;65.92;99184.94;4993918;28;20073;-86
2022/02/10 20:36:52;;;;;;;13.27;6.40;;;;;;;-4.84;65.68;99175.41;4995042;28;20544;-87
2022/02/10 20:39:25;;;;;;;9.55;5.40;;;;;;;-4.84;65.11;99185.84;4978421;28;20046;-86
2022/02/10 20:41:53;;;;;;;12.77;6.53;;;;;;;-4.87;64.90;99178.06;4995373;28;20050;-88
2022/02/10 20:44:20;;;;;;;11.90;6.43;;;;;;;-4.89;65.18;99172.03;4946820;28;20049;-87
2022/02/10 20:46:50;;;;;;;13.40;5.78;;;;;;;-4.89;64.94;99172.03;4993907;28;20062;-87
2022/02/10 20:49:17;;;;;;;11.50;6.32;;;;;;;-4.91;65.04;99160.78;4993857;28;20063;-88
2022/02/10 20:51:44;;;;;;;11.00;6.30;;;;;;;-4.99;65.17;99160.09;4994284;28;20145;-87
2022/02/10 20:54:10;;;;;;;12.38;5.95;;;;;;;-5.04;65.10;99152.38;4995200;28;20050;-88
2022/02/10 20:56:36;;;;;;;11.70;5.97;;;;;;;-4.99;65.29;99144.44;4977583;28;20055;-86
2022/02/10 20:59:17;;;;;;;11.38;6.32;;;;;;;-4.95;65.20;99152.16;4993865;28;20057;-85
2022/02/10 21:01:43;;;;;;;9.52;5.45;;;;;;;-4.99;65.39;99139.22;4995061;28;20046;-88
2022/02/10 21:04:09;;;;;;;10.02;5.88;;;;;;;-5.03;65.57;99132.38;4995674;28;20054;-88
2022/02/10 21:06:50;;;;;;;12.68;5.82;;;;;;;-4.98;65.71;99138.34;4978574;28;20050;-88
2022/02/10 21:09:33;;;;;;;13.48;6.43;;;;;;;-4.97;65.64;99132.22;4995408;28;20046;-88
2022/02/10 21:12:00;;;;;;;11.63;5.75;;;;;;;-5.03;65.07;99141.03;4979620;28;20405;-86
2022/02/10 21:14:28;;;;;;;10.85;5.68;;;;;;;-5.04;65.81;99143.66;4993901;28;20053;-88
2022/02/10 21:16:55;;;;;;;8.30;4.75;;;;;;;-5.19;65.46;99140.50;4993406;28;20039;-88
2022/02/10 21:19:23;;;;;;;8.35;5.03;;;;;;;-5.17;65.79;99141.31;4945460;28;20134;-88
2022/02/10 21:21:51;;;;;;;11.27;6.07;;;;;;;-5.14;66.01;99141.25;4993126;28;20588;-87
2022/02/10 21:24:23;;;;;;;13.45;6.28;;;;;;;-5.05;65.84;99132.38;5009480;28;20308;-87
2022/02/10 21:27:40;;;;;;;12.35;6.05;;;;;;;-5.03;65.53;99134.97;4978675;28;20073;-88
2022/02/10 21:29:39;;;;;;;14.63;6.00;;;;;;;-5.05;65.72;99121.09;4948155;28;20109;-88
2022/02/10 21:32:05;;;;;;;10.98;6.05;;;;;;;-5.04;65.41;99118.47;4992934;28;20108;-88
2022/02/10 21:34:40;;;;;;;10.52;5.72;;;;;;;-5.08;65.22;99115.94;4993939;28;20043;-89
2022/02/10 21:37:10;;;;;;;12.13;5.78;;;;;;;-5.21;65.06;99112.75;4992985;28;20162;-87
2022/02/10 21:39:51;;;;;;;12.82;5.80;;;;;;;-5.25;65.18;99127.59;4961989;28;20046;-88
2022/02/10 22:06:05;;;;;;;8.98;5.40;;;;;;;-5.27;65.04;99108.50;4941730;29;20590;-87
2022/02/10 22:08:38;;;;;;;8.68;5.43;;;;;;;-5.23;65.53;99110.19;4990938;28;20108;-89
2022/02/10 22:10:33;;;;;;;13.05;6.43;;;;;;;-5.34;65.14;99106.94;4987280;28;20624;-88
2022/02/10 22:18:45;;;;;;;10.82;5.72;;;;;;;-5.22;65.24;99106.69;4995896;28;20162;-87
2022/02/10 22:21:17;;;;;;;10.80;5.95;;;;;;;-5.24;64.91;99108.44;4999835;28;20050;-86
2022/02/10 22:23:46;;;;;;;9.48;4.72;;;;;;;-5.32;65.21;99104.28;5028032;28;20370;-87
2022/02/10 22:26:19;;;;;;;11.55;5.65;;;;;;;-5.40;65.32;99096.63;4985590;28;20070;-86
2022/02/10 22:31:40;;;;;;;9.57;4.68;;;;;;;-5.25;65.50;99096.31;5013639;28;20027;-87
2022/02/10 22:37:03;;;;;;;9.02;5.72;;;;;;;-5.34;65.49;99086.09;5005638;28;20066;-88
2022/02/10 22:39:34;;;;;;;14.80;5.93;;;;;;;-5.49;66.18;99079.44;5018135;28;20135;-86
2022/02/10 22:42:01;;;;;;;11.00;5.60;;;;;;;-5.36;66.24;99082.66;4993297;28;20069;-87
2022/02/10 22:44:27;;;;;;;13.38;5.80;;;;;;;-5.45;65.93;99080.25;4999819;28;20046;-88
2022/02/10 22:46:54;;;;;;;14.18;5.70;;;;;;;-5.42;65.80;99073.19;4981215;28;20082;-88
2022/02/10 22:49:20;;;;;;;11.77;5.72;;;;;;;-5.29;66.08;99078.19;4997914;28;20084;-87
2022/02/10 22:51:45;;;;;;;13.88;6.05;;;;;;;-5.25;65.94;99059.84;4948804;28;20498;-87
2022/02/10 22:54:14;;;;;;;10.07;5.53;;;;;;;-5.35;65.34;99053.09;4997416;28;20490;-87
2022/02/10 22:56:41;;;;;;;10.97;5.83;;;;;;;-5.30;65.32;99056.47;4996789;28;20044;-87
2022/02/10 22:59:07;;;;;;;8.77;5.55;;;;;;;-5.26;65.36;99058.13;4980523;28;20506;-86
2022/02/10 23:01:34;;;;;;;12.18;6.50;;;;;;;-5.30;65.13;99043.47;4981676;28;20057;-88
2022/02/10 23:04:00;;;;;;;11.60;5.75;;;;;;;-5.23;65.44;99045.06;4981459;28;20418;-87
2022/02/10 23:06:26;;;;;;;9.57;5.82;;;;;;;-5.27;65.43;99034.69;4996091;28;20046;-87
2022/02/10 23:08:52;;;;;;;10.45;5.97;;;;;;;-5.28;65.25;99028.63;4995984;28;20128;-88
2022/02/10 23:11:26;;;;;;;13.25;5.63;;;;;;;-5.23;65.45;99037.22;4979938;28;20093;-88
2022/02/10 23:13:54;;;;;;;11.00;5.78;;;;;;;-5.23;64.96;99013.78;4997224;28;20092;-87
2022/02/10 23:16:21;;;;;;;11.82;5.18;;;;;;;-5.12;64.97;99016.97;4979882;28;20510;-88
2022/02/10 23:18:47;;;;;;;8.23;5.18;;;;;;;-5.08;64.63;99028.19;4979660;28;20077;-89
2022/02/10 23:21:14;;;;;;;10.65;6.10;;;;;;;-5.06;64.31;99018.59;4996182;28;20474;-88
2022/02/10 23:23:45;;;;;;;9.07;5.28;;;;;;;-5.09;64.22;99017.81;4995834;28;20039;-88
2022/02/10 23:26:13;;;;;;;13.20;6.25;;;;;;;-5.20;63.82;99021.50;4963767;28;20046;-88
2022/02/10 23:28:41;;;;;;;11.07;5.68;;;;;;;-5.25;64.30;99007.72;4979531;28;20446;-89
2022/02/10 23:31:10;;;;;;;10.13;5.82;;;;;;;-5.22;64.18;99018.09;4979839;28;20474;-90
2022/02/10 23:33:39;;;;;;;10.07;5.80;;;;;;;-5.16;64.21;99017.94;4995372;28;20038;-88
2022/02/10 23:44:13;;;;;;;11.48;5.60;;;;;;;-5.20;63.87;99016.28;4980961;28;20096;-88
2022/02/10 23:46:40;;;;;;;9.05;4.72;;;;;;;-5.29;63.52;99011.28;4980912;28;20081;-87
2022/02/10 23:49:06;;;;;;;10.40;5.35;;;;;;;-5.30;63.83;99004.38;4980615;28;20142;-88
2022/02/10 23:51:37;;;;;;;10.13;5.55;;;;;;;-5.39;64.01;98988.94;4998123;28;20054;-88
2022/02/10 23:54:03;;;;;;;8.43;4.97;;;;;;;-5.37;64.00;98992.38;4985745;28;20058;-87
2022/02/10 23:56:34;;;;;;;9.10;5.45;;;;;;;-5.38;64.31;98983.72;5006781;28;20050;-90
2022/02/10 23:59:14;;;;;;;10.40;5.07;;;;;;;-5.41;64.06;98990.72;5007454;28;20177;-88
